Time,TemperatureF,DewpointF,PressureIn,WindDirection,WindDirectionDegrees,WindSpeedMPH,WindSpeedGustMPH,Humidity,HourlyPrecipIn,Conditions,Clouds,dailyrainin,SoftwareType,DateUTC
2013-09-18 00:06:00,45.2,43.0,30.27,SSE,158,0.0,0.0,92,0.00,,,0.00,weatherlink.com 1.10,2013-09-18 04:06:00,
2013-09-18 00:21:00,44.8,43.0,30.27,SSE,158,0.0,0.0,92,0.00,,,0.00,weatherlink.com 1.10,2013-09-18 04:21:00,
2013-09-18 00:36:00,44.6,43.0,30.27,SSE,158,0.0,0.0,93,0.00,,,0.00,weatherlink.com 1.10,2013-09-18 04:36:00,
2013-09-18 00:51:00,44.6,43.0,30.27,SSE,158,0.0,0.0,93,0.00,,,0.00,weatherlink.com 1.10,2013-09-18 04:51:00,
2013-09-18 01:06:00,44.5,43.0,30.27,WSW,244,0.0,0.0,93,0.00,,,0.00,weatherlink.com 1.10,2013-09-18 05:06:00,
2013-09-18 01:21:00,44.3,42.0,30.27,WSW,244,0.0,0.0,93,0.00,,,0.00,weatherlink.com 1.10,2013-09-18 05:21:00,
2013-09-18 01:36:00,44.1,42.0,30.27,WSW,244,0.0,0.0,93,0.00,,,0.00,weatherlink.com 1.10,2013-09-18 05:36:00,
2013-09-18 01:51:00,43.8,42.0,30.27,WSW,244,0.0,0.0,94,0.00,,,0.00,weatherlink.com 1.10,2013-09-18 05:51:00,
2013-09-18 02:06:00,43.6,42.0,30.27,WSW,244,0.0,0.0,93,0.00,,,0.00,weatherlink.com 1.10,2013-09-18 06:06:00,
2013-09-18 02:21:00,43.3,42.0,30.27,WSW,244,0.0,0.0,94,0.00,,,0.00,weatherlink.com 1.10,2013-09-18 06:21:00,
2013-09-18 02:36:00,43.1,42.0,30.27,WSW,244,0.0,0.0,94,0.00,,,0.00,weatherlink.com 1.10,2013-09-18 06:36:00,
2013-09-18 02:51:00,42.8,41.0,30.26,WSW,244,0.0,0.0,94,0.00,,,0.00,weatherlink.com 1.10,2013-09-18 06:51:00,
2013-09-18 03:06:00,42.6,41.0,30.26,WSW,244,0.0,0.0,95,0.00,,,0.00,weatherlink.com 1.10,2013-09-18 07:06:00,
2013-09-18 03:21:00,42.4,41.0,30.26,WSW,244,0.0,0.0,94,0.00,,,0.00,weatherlink.com 1.10,2013-09-18 07:21:00,
2013-09-18 03:36:00,42.1,41.0,30.26,WSW,244,0.0,0.0,95,0.00,,,0.00,weatherlink.com 1.10,2013-09-18 07:36:00,
2013-09-18 03:51:00,41.9,41.0,30.26,WSW,244,0.0,0.0,95,0.00,,,0.00,weatherlink.com 1.10,2013-09-18 07:51:00,
2013-09-18 04:06:00,41.7,40.0,30.26,WSW,244,0.0,0.0,94,0.00,,,0.00,weatherlink.com 1.10,2013-09-18 08:06:00,
2013-09-18 04:21:00,41.4,40.0,30.25,WSW,244,0.0,0.0,95,0.00,,,0.00,weatherlink.com 1.10,2013-09-18 08:21:00,
2013-09-18 04:36:00,41.4,40.0,30.25,WSW,244,0.0,0.0,95,0.00,,,0.00,weatherlink.com 1.10,2013-09-18 08:36:00,
2013-09-18 04:51:00,41.2,40.0,30.26,WSW,244,0.0,0.0,95,0.00,,,0.00,weatherlink.com 1.10,2013-09-18 08:51:00,
2013-09-18 05:06:00,41.0,40.0,30.26,WSW,244,0.0,0.0,95,0.00,,,0.00,weatherlink.com 1.10,2013-09-18 09:06:00,
2013-09-18 05:21:00,40.8,40.0,30.25,WSW,244,0.0,0.0,95,0.00,,,0.00,weatherlink.com 1.10,2013-09-18 09:21:00,
2013-09-18 05:36:00,40.6,40.0,30.25,WSW,244,0.0,0.0,96,0.00,,,0.00,weatherlink.com 1.10,2013-09-18 09:36:00,
2013-09-18 05:51:00,40.5,39.0,30.25,WSW,244,0.0,0.0,95,0.00,,,0.00,weatherlink.com 1.10,2013-09-18 09:51:00,
2013-09-18 06:06:00,40.2,39.0,30.26,WSW,244,0.0,0.0,95,0.00,,,0.00,weatherlink.com 1.10,2013-09-18 10:06:00,
2013-09-18 06:21:00,39.8,39.0,30.26,WSW,244,0.0,0.0,95,0.00,,,0.00,weatherlink.com 1.10,2013-09-18 10:21:00,
2013-09-18 06:36:00,39.7,39.0,30.26,WSW,244,0.0,0.0,96,0.00,,,0.00,weatherlink.com 1.10,2013-09-18 10:36:00,
2013-09-18 06:51:00,39.7,39.0,30.26,WSW,244,0.0,0.0,96,0.00,,,0.00,weatherlink.com 1.10,2013-09-18 10:51:00,
2013-09-18 07:06:00,39.8,39.0,30.27,WSW,244,0.0,0.0,96,0.00,,,0.00,weatherlink.com 1.10,2013-09-18 11:06:00,
2013-09-18 07:21:00,39.7,39.0,30.27,WSW,244,0.0,0.0,96,0.00,,,0.00,weatherlink.com 1.10,2013-09-18 11:21:00,
2013-09-18 07:36:00,40.9,40.0,30.27,WSW,244,0.0,0.0,97,0.00,,,0.00,weatherlink.com 1.10,2013-09-18 11:36:00,
2013-09-18 07:51:00,43.9,43.0,30.27,WSW,244,0.0,0.0,98,0.00,,,0.00,weatherlink.com 1.10,2013-09-18 11:51:00,
2013-09-18 08:06:00,46.9,46.0,30.27,West,281,2.0,2.0,98,0.00,,,0.00,weatherlink.com 1.10,2013-09-18 12:06:00,
2013-09-18 08:21:00,49.0,46.0,30.27,WNW,283,0.0,2.0,90,0.00,,,0.00,weatherlink.com 1.10,2013-09-18 12:21:00,
2013-09-18 08:36:00,52.5,48.0,30.27,WNW,283,0.0,1.0,83,0.00,,,0.00,weatherlink.com 1.10,2013-09-18 12:36:00,
2013-09-18 08:52:00,53.5,47.0,30.27,SE,128,0.0,2.0,79,0.00,,,0.00,weatherlink.com 1.10,2013-09-18 12:52:00,
2013-09-18 09:07:00,53.9,47.0,30.27,ENE,77,0.0,2.0,78,0.00,,,0.00,weatherlink.com 1.10,2013-09-18 13:07:00,
2013-09-18 09:22:00,55.5,48.0,30.27,East,89,0.0,2.0,77,0.00,,,0.00,weatherlink.com 1.10,2013-09-18 13:22:00,
2013-09-18 09:37:00,56.8,48.0,30.27,ESE,106,0.0,2.0,73,0.00,,,0.00,weatherlink.com 1.10,2013-09-18 13:37:00,
2013-09-18 09:52:00,58.6,49.0,30.27,ESE,106,0.0,2.0,70,0.00,,,0.00,weatherlink.com 1.10,2013-09-18 13:52:00,
2013-09-18 10:07:00,58.9,49.0,30.27,ESE,111,0.0,3.0,70,0.00,,,0.00,weatherlink.com 1.10,2013-09-18 14:07:00,
2013-09-18 10:22:00,60.4,51.0,30.27,WNW,297,0.0,5.0,71,0.00,,,0.00,weatherlink.com 1.10,2013-09-18 14:22:00,
2013-09-18 10:37:00,62.7,51.0,30.26,WSW,243,0.0,-999.0,66,24.48,,,0.00,weatherlink.com 1.10,2013-09-18 14:37:00,
2013-09-18 10:52:00,64.4,51.0,30.26,West,259,1.0,2.0,62,0.00,,,0.00,weatherlink.com 1.10,2013-09-18 14:52:00,
2013-09-18 11:07:00,64.7,50.0,30.25,East,86,3.0,5.0,60,0.00,,,0.00,weatherlink.com 1.10,2013-09-18 15:07:00,
2013-09-18 11:22:00,65.0,50.0,30.25,ENE,64,1.0,3.0,59,0.00,,,0.00,weatherlink.com 1.10,2013-09-18 15:22:00,
2013-09-18 11:37:00,65.6,49.0,30.24,ESE,103,3.0,3.0,55,0.00,,,0.00,weatherlink.com 1.10,2013-09-18 15:37:00,
2013-09-18 11:52:00,65.9,50.0,30.24,East,96,0.0,5.0,56,0.00,,,0.00,weatherlink.com 1.10,2013-09-18 15:52:00,
2013-09-18 12:07:00,66.4,50.0,30.23,ENE,76,1.0,5.0,55,0.00,,,0.00,weatherlink.com 1.10,2013-09-18 16:07:00,
2013-09-18 12:22:00,66.8,50.0,30.23,East,97,1.0,6.0,56,0.00,,,0.00,weatherlink.com 1.10,2013-09-18 16:22:00,
2013-09-18 12:37:00,68.1,51.0,30.22,ESE,108,1.0,3.0,54,0.00,,,0.00,weatherlink.com 1.10,2013-09-18 16:37:00,
2013-09-18 12:52:00,69.3,50.0,30.21,East,82,2.0,5.0,51,0.00,,,0.00,weatherlink.com 1.10,2013-09-18 16:52:00,
2013-09-18 13:07:00,68.5,50.0,30.21,ENE,70,1.0,5.0,51,0.00,,,0.00,weatherlink.com 1.10,2013-09-18 17:07:00,
2013-09-18 13:22:00,69.5,49.0,30.20,ENE,71,0.0,3.0,49,0.00,,,0.00,weatherlink.com 1.10,2013-09-18 17:22:00,
2013-09-18 13:37:00,69.1,48.0,30.19,East,90,2.0,4.0,47,0.00,,,0.00,weatherlink.com 1.10,2013-09-18 17:37:00,
2013-09-18 13:52:00,70.5,51.0,30.19,ESE,107,1.0,3.0,50,0.00,,,0.00,weatherlink.com 1.10,2013-09-18 17:52:00,
2013-09-18 14:07:00,70.1,49.0,30.18,ESE,113,0.0,3.0,48,0.00,,,0.00,weatherlink.com 1.10,2013-09-18 18:07:00,
2013-09-18 14:23:00,69.5,48.0,30.17,East,97,3.0,9.0,47,0.00,,,0.00,weatherlink.com 1.10,2013-09-18 18:23:00,
2013-09-18 14:38:00,67.9,50.0,30.17,ESE,114,0.0,5.0,53,0.00,,,0.00,weatherlink.com 1.10,2013-09-18 18:38:00,
2013-09-18 14:53:00,68.8,50.0,30.16,East,88,3.0,5.0,52,0.00,,,0.00,weatherlink.com 1.10,2013-09-18 18:53:00,
2013-09-18 15:08:00,69.2,50.0,30.15,East,95,0.0,8.0,51,0.00,,,0.00,weatherlink.com 1.10,2013-09-18 19:08:00,
2013-09-18 15:24:00,69.0,49.0,30.15,ESE,106,1.0,7.0,49,0.00,,,0.00,weatherlink.com 1.10,2013-09-18 19:24:00,
2013-09-18 15:38:00,69.3,50.0,30.14,ESE,123,1.0,7.0,51,0.00,,,0.00,weatherlink.com 1.10,2013-09-18 19:38:00,
2013-09-18 15:53:00,69.6,50.0,30.13,East,91,2.0,6.0,50,0.00,,,0.00,weatherlink.com 1.10,2013-09-18 19:53:00,
2013-09-18 16:08:00,69.0,49.0,30.13,SE,146,4.0,6.0,50,0.00,,,0.00,weatherlink.com 1.10,2013-09-18 20:08:00,
2013-09-18 16:23:00,68.9,49.0,30.13,East,90,3.0,6.0,49,0.00,,,0.00,weatherlink.com 1.10,2013-09-18 20:23:00,
2013-09-18 16:38:00,68.8,50.0,30.13,East,87,0.0,4.0,51,0.00,,,0.00,weatherlink.com 1.10,2013-09-18 20:38:00,
2013-09-18 16:53:00,68.9,50.0,30.12,SE,134,0.0,3.0,51,0.00,,,0.00,weatherlink.com 1.10,2013-09-18 20:53:00,
2013-09-18 17:08:00,68.6,50.0,30.12,SE,130,0.0,5.0,51,0.00,,,0.00,weatherlink.com 1.10,2013-09-18 21:08:00,
2013-09-18 17:23:00,68.9,49.0,30.12,ESE,119,4.0,5.0,49,0.00,,,0.00,weatherlink.com 1.10,2013-09-18 21:23:00,
2013-09-18 17:38:00,68.8,50.0,30.11,SE,126,0.0,6.0,51,0.00,,,0.00,weatherlink.com 1.10,2013-09-18 21:38:00,
2013-09-18 17:53:00,68.1,50.0,30.11,East,89,0.0,3.0,53,0.00,,,0.00,weatherlink.com 1.10,2013-09-18 21:53:00,
2013-09-18 18:08:00,67.2,50.0,30.11,East,84,0.0,1.0,55,0.00,,,0.00,weatherlink.com 1.10,2013-09-18 22:08:00,
2013-09-18 18:23:00,66.4,49.0,30.11,East,84,0.0,1.0,54,0.00,,,0.00,weatherlink.com 1.10,2013-09-18 22:23:00,
2013-09-18 18:38:00,65.6,49.0,30.11,East,84,0.0,1.0,56,0.00,,,0.00,weatherlink.com 1.10,2013-09-18 22:38:00,
2013-09-18 18:53:00,65.1,51.0,30.11,East,84,0.0,0.0,60,0.00,,,0.00,weatherlink.com 1.10,2013-09-18 22:53:00,
2013-09-18 19:08:00,64.1,52.0,30.12,East,84,0.0,0.0,64,0.00,,,0.00,weatherlink.com 1.10,2013-09-18 23:08:00,
2013-09-18 19:23:00,62.6,51.0,30.12,East,84,0.0,0.0,67,0.00,,,0.00,weatherlink.com 1.10,2013-09-18 23:23:00,
2013-09-18 19:38:00,61.1,52.0,30.11,East,84,0.0,0.0,71,0.00,,,0.00,weatherlink.com 1.10,2013-09-18 23:38:00,
2013-09-18 19:53:00,59.5,52.0,30.12,East,84,0.0,0.0,75,0.00,,,0.00,weatherlink.com 1.10,2013-09-18 23:53:00,
2013-09-18 20:08:00,58.3,51.0,30.12,East,84,0.0,0.0,78,0.00,,,0.00,weatherlink.com 1.10,2013-09-19 00:08:00,
2013-09-18 20:23:00,57.3,52.0,30.12,East,84,0.0,0.0,82,0.00,,,0.00,weatherlink.com 1.10,2013-09-19 00:23:00,
2013-09-18 20:38:00,56.5,52.0,30.12,East,84,0.0,0.0,84,0.00,,,0.00,weatherlink.com 1.10,2013-09-19 00:38:00,
2013-09-18 20:53:00,55.8,52.0,30.13,East,84,0.0,0.0,86,0.00,,,0.00,weatherlink.com 1.10,2013-09-19 00:53:00,
2013-09-18 21:08:00,55.2,51.0,30.13,East,84,0.0,0.0,86,0.00,,,0.00,weatherlink.com 1.10,2013-09-19 01:08:00,
2013-09-18 21:24:00,54.6,51.0,30.13,East,84,0.0,0.0,87,0.00,,,0.00,weatherlink.com 1.10,2013-09-19 01:24:00,
2013-09-18 21:38:00,54.2,51.0,30.13,East,84,0.0,0.0,88,0.00,,,0.00,weatherlink.com 1.10,2013-09-19 01:38:00,
2013-09-18 21:53:00,54.0,51.0,30.13,East,84,0.0,0.0,89,0.00,,,0.00,weatherlink.com 1.10,2013-09-19 01:53:00,
2013-09-18 22:08:00,53.7,51.0,30.13,East,84,0.0,0.0,89,0.00,,,0.00,weatherlink.com 1.10,2013-09-19 02:08:00,
2013-09-18 22:23:00,53.4,51.0,30.13,East,84,0.0,0.0,90,0.00,,,0.00,weatherlink.com 1.10,2013-09-19 02:23:00,
2013-09-18 22:38:00,53.2,50.0,30.13,East,84,0.0,0.0,90,0.00,,,0.00,weatherlink.com 1.10,2013-09-19 02:38:00,
2013-09-18 22:53:00,52.8,50.0,30.13,East,84,0.0,0.0,90,0.00,,,0.00,weatherlink.com 1.10,2013-09-19 02:53:00,
2013-09-18 23:23:00,52.2,50.0,30.13,East,84,0.0,0.0,91,0.00,,,0.00,weatherlink.com 1.10,2013-09-19 03:23:00,
2013-09-18 23:38:00,52.0,50.0,30.12,East,84,0.0,0.0,92,0.00,,,0.00,weatherlink.com 1.10,2013-09-19 03:38:00,
2013-09-18 23:53:00,51.6,49.0,30.12,East,84,0.0,0.0,91,0.00,,,0.00,weatherlink.com 1.10,2013-09-19 03:53:00,